createdAt,value
2023-01-17T00:00:38.622Z,95797.58
2023-01-17T00:04:24.884Z,95798.10
2023-01-17T00:08:11.314Z,95800.71
2023-01-17T00:11:38.655Z,95810.29
2023-01-17T00:15:26.388Z,95818.58
2023-01-17T00:19:12.495Z,95820.93
2023-01-17T00:22:58.529Z,95816.63
2023-01-17T00:26:45.159Z,95813.64
2023-01-17T00:30:12.568Z,95814.56
2023-01-17T00:33:39.925Z,95819.50
2023-01-17T00:37:07.346Z,95818.36
2023-01-17T00:40:34.719Z,95808.38
2023-01-17T00:44:20.863Z,95795.15
2023-01-17T00:48:06.985Z,95794.83
2023-01-17T00:51:53.301Z,95792.50
2023-01-17T00:55:39.382Z,95780.13
2023-01-17T00:59:25.723Z,95760.73
2023-01-17T01:03:12.014Z,95756.95
2023-01-17T01:06:58.489Z,95759.92
2023-01-17T01:10:44.822Z,95755.61
2023-01-17T01:14:31.213Z,95761.10
2023-01-17T01:17:56.753Z,95767.48
2023-01-17T01:21:42.949Z,95764.92
2023-01-17T01:25:29.231Z,95766.38
2023-01-17T01:29:15.494Z,95756.13
2023-01-17T01:32:41.248Z,95750.29
2023-01-17T01:36:31.700Z,95743.63
2023-01-17T01:40:19.405Z,95736.42
2023-01-17T01:44:22.192Z,95727.30
2023-01-17T01:48:12.629Z,95712.25
2023-01-17T01:52:00.022Z,95711.88
2023-01-17T01:55:47.804Z,95698.93
2023-01-17T01:59:35.484Z,95697.08
2023-01-17T02:03:23.288Z,95690.91
2023-01-17T02:07:13.681Z,95681.19
2023-01-17T02:11:01.424Z,95669.14
2023-01-17T02:14:49.476Z,95668.35
2023-01-17T02:18:35.655Z,95667.31
2023-01-17T02:22:41.449Z,95673.94
2023-01-17T02:26:47.236Z,95682.34
2023-01-17T02:30:52.888Z,95673.44
2023-01-17T02:34:40.736Z,95665.52
2023-01-17T02:38:40.447Z,95676.08
2023-01-17T02:42:28.216Z,95672.35
2023-01-17T02:46:15.965Z,95668.30
2023-01-17T02:50:06.607Z,95671.08
2023-01-17T02:54:12.514Z,95671.76
2023-01-17T02:58:06.039Z,95675.43
2023-01-17T03:01:59.883Z,95682.44
2023-01-17T03:05:53.843Z,95669.67
2023-01-17T03:09:41.606Z,95670.02
2023-01-17T03:13:29.385Z,95672.88
2023-01-17T03:17:17.125Z,95671.72
2023-01-17T03:21:04.974Z,95668.61
2023-01-17T03:24:52.704Z,95665.28
2023-01-17T03:28:40.414Z,95659.49
2023-01-17T03:32:28.134Z,95658.48
2023-01-17T03:36:16.061Z,95654.96
2023-01-17T03:40:03.794Z,95655.50
2023-01-17T03:43:51.527Z,95662.95
2023-01-17T03:47:39.303Z,95664.88
2023-01-17T03:51:27.051Z,95670.74
2023-01-17T03:55:14.937Z,95673.61
2023-01-17T03:59:02.733Z,95672.80
2023-01-17T04:02:50.567Z,95668.95
2023-01-17T04:06:38.575Z,95672.88
2023-01-17T04:10:26.294Z,95676.55
2023-01-17T04:14:14.071Z,95675.80
2023-01-17T04:18:01.871Z,95672.23
2023-01-17T04:21:49.627Z,95675.83
2023-01-17T04:25:37.436Z,95675.30
2023-01-17T04:29:25.115Z,95680.82
2023-01-17T04:33:13.066Z,95684.67
2023-01-17T04:37:00.945Z,95698.55
2023-01-17T04:40:48.858Z,95712.05
2023-01-17T04:44:36.572Z,95720.66
2023-01-17T04:48:24.408Z,95719.14
2023-01-17T04:52:12.216Z,95722.38
2023-01-17T04:56:00.807Z,95732.66
2023-01-17T04:59:48.586Z,95736.72
2023-01-17T05:03:36.285Z,95737.14
2023-01-17T05:07:24.274Z,95735.36
2023-01-17T05:11:13.386Z,95737.12
2023-01-17T05:15:01.184Z,95733.47
2023-01-17T05:18:51.622Z,95730.91
2023-01-17T05:22:40.553Z,95735.40
2023-01-17T05:26:28.375Z,95726.58
2023-01-17T05:30:16.230Z,95724.27
2023-01-17T05:34:05.147Z,95720.91
2023-01-17T05:37:53.232Z,95724.59
2023-01-17T05:41:40.973Z,95725.82
2023-01-17T05:45:28.770Z,95716.96
2023-01-17T05:49:16.525Z,95705.00
2023-01-17T05:53:04.642Z,95696.39
2023-01-17T05:56:52.405Z,95688.41
2023-01-17T06:00:40.105Z,95697.66
2023-01-17T06:04:28.492Z,95709.77
2023-01-17T06:08:16.641Z,95712.29
2023-01-17T06:12:04.427Z,95705.09
2023-01-17T06:15:52.221Z,95698.45
2023-01-17T06:19:40.028Z,95701.27
2023-01-17T06:23:27.908Z,95709.05
2023-01-17T06:27:15.728Z,95717.10
2023-01-17T06:31:03.717Z,95719.69
2023-01-17T06:34:44.098Z,95724.19
2023-01-17T06:38:32.665Z,95725.65
2023-01-17T06:42:20.120Z,95728.60
2023-01-17T06:46:08.067Z,95735.30
2023-01-17T06:49:55.907Z,95740.83
2023-01-17T06:53:44.684Z,95730.55
2023-01-17T06:57:33.167Z,95712.14
2023-01-17T07:01:21.856Z,95706.96
2023-01-17T07:05:09.967Z,95706.66
2023-01-17T07:08:58.060Z,95689.23
2023-01-17T07:12:46.774Z,95693.17
2023-01-17T07:16:34.652Z,95697.06
2023-01-17T07:20:22.589Z,95699.59
2023-01-17T07:24:10.329Z,95700.33
2023-01-17T07:27:58.238Z,95702.96
2023-01-17T07:31:45.993Z,95700.45
2023-01-17T07:35:33.862Z,95700.69
2023-01-17T07:39:21.951Z,95700.96
2023-01-17T07:43:09.793Z,95711.22
2023-01-17T07:46:57.951Z,95713.50
2023-01-17T07:50:45.862Z,95712.85
2023-01-17T07:54:33.753Z,95714.97
2023-01-17T07:58:21.645Z,95720.92
2023-01-17T08:02:09.807Z,95732.19
2023-01-17T08:05:57.676Z,95741.91
2023-01-17T08:09:45.865Z,95747.33
2023-01-17T08:13:34.934Z,95746.24
2023-01-17T08:17:23.077Z,95751.09
2023-01-17T08:21:11.744Z,95761.86
2023-01-17T08:24:59.815Z,95763.71
2023-01-17T08:28:47.826Z,95773.38
2023-01-17T08:32:35.752Z,95773.56
2023-01-17T08:36:32.768Z,95772.76
2023-01-17T08:40:20.758Z,95771.77
2023-01-17T08:44:08.510Z,95773.33
2023-01-17T08:47:56.378Z,95767.98
2023-01-17T08:51:44.217Z,95758.55
2023-01-17T08:55:32.193Z,95764.02
2023-01-17T08:59:20.012Z,95774.71
2023-01-17T09:03:07.826Z,95790.42
2023-01-17T09:07:07.568Z,95806.98
2023-01-17T09:10:56.434Z,95817.30
2023-01-17T09:14:44.851Z,95828.92
2023-01-17T09:18:35.661Z,95831.70
2023-01-17T09:22:24.747Z,95849.22
2023-01-17T09:26:12.505Z,95865.13
2023-01-17T09:30:00.390Z,95868.72
2023-01-17T09:33:54.235Z,95863.05
2023-01-17T09:37:42.176Z,95851.14
2023-01-17T09:41:31.239Z,95839.55
2023-01-17T09:45:25.005Z,95830.39
2023-01-17T09:49:13.696Z,95823.23
2023-01-17T09:53:01.512Z,95816.90
2023-01-17T09:56:58.764Z,95807.40
2023-01-17T10:00:58.408Z,95803.92
2023-01-17T10:04:49.087Z,95820.70
2023-01-17T10:09:01.125Z,95823.57
2023-01-17T10:13:01.411Z,95828.83
2023-01-17T10:17:06.148Z,95834.40
2023-01-17T10:20:52.117Z,95837.01
2023-01-17T10:24:49.950Z,95833.14
2023-01-17T10:28:41.133Z,95834.09
2023-01-17T10:32:32.485Z,95828.17
2023-01-17T10:36:20.237Z,95833.34
2023-01-17T10:40:20.361Z,95862.85
2023-01-17T10:44:23.374Z,95870.72
2023-01-17T10:48:11.964Z,95861.94
2023-01-17T10:52:05.359Z,95852.52
2023-01-17T10:55:52.273Z,95849.50
2023-01-17T10:59:51.643Z,95855.09
2023-01-17T11:03:39.674Z,95858.61
2023-01-17T11:07:28.769Z,95856.09
2023-01-17T11:11:19.309Z,95843.38
2023-01-17T11:15:07.268Z,95841.58
2023-01-17T11:19:00.970Z,95845.98
2023-01-17T11:22:51.530Z,95849.27
2023-01-17T11:26:42.103Z,95832.63
2023-01-17T11:30:43.190Z,95831.07
2023-01-17T11:34:46.920Z,95833.61
2023-01-17T11:38:37.444Z,95826.54
2023-01-17T11:42:25.864Z,95820.37
2023-01-17T11:46:44.347Z,95821.59
2023-01-17T11:50:32.919Z,95826.77
2023-01-17T11:54:29.852Z,95816.06
2023-01-17T11:58:26.762Z,95809.41
2023-01-17T12:02:12.444Z,95797.63
2023-01-17T12:06:12.821Z,95797.34
2023-01-17T12:10:15.794Z,95783.40
2023-01-17T12:14:23.153Z,95771.03
2023-01-17T12:18:30.736Z,95772.50
2023-01-17T12:22:21.774Z,95757.46
2023-01-17T12:26:24.614Z,95760.95
2023-01-17T12:30:30.300Z,95762.84
2023-01-17T12:34:27.026Z,95770.87
2023-01-17T12:38:27.637Z,95785.94
2023-01-17T12:42:33.239Z,95790.91
2023-01-17T12:46:24.610Z,95797.73
2023-01-17T12:50:15.551Z,95789.04
2023-01-17T12:54:01.781Z,95788.66
2023-01-17T12:58:05.524Z,95782.16
2023-01-17T13:02:00.922Z,95778.40
2023-01-17T13:05:57.784Z,95771.02
2023-01-17T13:09:45.799Z,95760.78
2023-01-17T13:13:33.821Z,95769.24
2023-01-17T13:17:24.624Z,95770.33
2023-01-17T13:21:15.637Z,95774.86
2023-01-17T13:25:06.303Z,95787.02
2023-01-17T13:28:58.295Z,95793.14
2023-01-17T13:32:52.725Z,95800.01
2023-01-17T13:36:49.415Z,95802.94
2023-01-17T13:40:40.021Z,95808.45
2023-01-17T13:44:42.738Z,95807.38
2023-01-17T13:48:30.634Z,95816.61
2023-01-17T13:52:17.134Z,95827.24
2023-01-17T13:56:04.937Z,95829.55
2023-01-17T13:59:53.775Z,95832.39
2023-01-17T14:03:41.877Z,95839.05
2023-01-17T14:07:38.919Z,95829.27
2023-01-17T14:11:09.025Z,95825.08
2023-01-17T14:14:59.756Z,95819.91
2023-01-17T14:18:47.620Z,95821.98
2023-01-17T14:22:34.169Z,95820.96
2023-01-17T14:26:25.148Z,95819.58
2023-01-17T14:30:10.765Z,95823.06
2023-01-17T14:34:01.509Z,95824.21
2023-01-17T14:37:51.852Z,95821.45
2023-01-17T14:41:43.096Z,95824.73
2023-01-17T14:45:30.927Z,95832.05
2023-01-17T14:49:18.685Z,95831.45
2023-01-17T14:53:07.812Z,95837.05
2023-01-17T14:56:55.646Z,95838.69
2023-01-17T15:00:49.106Z,95844.81
2023-01-17T15:04:43.842Z,95849.77
2023-01-17T15:08:31.695Z,95848.33
2023-01-17T15:12:22.353Z,95842.46
2023-01-17T15:16:29.281Z,95849.36
2023-01-17T15:20:24.376Z,95844.88
2023-01-17T15:24:16.181Z,95846.79
2023-01-17T15:28:05.819Z,95840.48
2023-01-17T15:32:11.880Z,95824.52
2023-01-17T15:36:00.186Z,95819.79
2023-01-17T15:39:58.837Z,95820.48
2023-01-17T15:43:46.888Z,95828.67
2023-01-17T15:47:40.675Z,95828.83
2023-01-17T15:51:28.613Z,95836.02
2023-01-17T15:55:26.575Z,95840.59
2023-01-17T15:59:23.533Z,95827.97
2023-01-17T16:03:10.615Z,95842.61
2023-01-17T16:07:07.870Z,95867.36
2023-01-17T16:10:48.870Z,95876.39
2023-01-17T16:14:53.605Z,95838.30
2023-01-17T16:18:50.451Z,95843.56
2023-01-17T16:22:38.363Z,95831.77
2023-01-17T16:26:29.562Z,95813.19
2023-01-17T16:30:17.505Z,95797.11
2023-01-17T16:34:05.447Z,95807.10
2023-01-17T16:37:53.760Z,95803.87
2023-01-17T16:41:43.127Z,95818.60
2023-01-17T16:45:31.721Z,95826.41
2023-01-17T16:49:20.300Z,95835.83
2023-01-17T16:53:08.224Z,95825.95
2023-01-17T16:56:58.920Z,95824.29
2023-01-17T17:00:49.736Z,95817.54
2023-01-17T17:04:37.763Z,95815.47
2023-01-17T17:08:26.006Z,95814.78
2023-01-17T17:12:19.321Z,95817.73
2023-01-17T17:16:08.161Z,95808.97
2023-01-17T17:19:56.608Z,95806.70
2023-01-17T17:23:45.027Z,95789.84
2023-01-17T17:27:34.210Z,95784.46
2023-01-17T17:31:22.223Z,95777.90
2023-01-17T17:35:13.056Z,95768.24
2023-01-17T17:39:00.734Z,95747.27
2023-01-17T17:42:48.626Z,95743.58
2023-01-17T17:46:36.539Z,95747.46
2023-01-17T17:50:27.465Z,95762.43
2023-01-17T17:54:15.246Z,95763.53
2023-01-17T17:58:03.376Z,95750.98
2023-01-17T18:01:51.286Z,95755.74
2023-01-17T18:05:40.265Z,95761.44
2023-01-17T18:09:27.981Z,95748.70
2023-01-17T18:13:17.298Z,95732.98
2023-01-17T18:17:05.711Z,95721.55
2023-01-17T18:20:53.597Z,95714.33
2023-01-17T18:24:41.484Z,95704.84
2023-01-17T18:28:29.951Z,95687.96
2023-01-17T18:32:17.783Z,95674.77
2023-01-17T18:36:05.677Z,95678.88
2023-01-17T18:39:53.545Z,95687.15
2023-01-17T18:43:41.504Z,95692.14
2023-01-17T18:47:29.398Z,95691.66
2023-01-17T18:51:17.982Z,95672.90
2023-01-17T18:55:05.998Z,95675.84
2023-01-17T18:58:55.007Z,95671.44
2023-01-17T19:02:43.213Z,95662.48
2023-01-17T19:06:31.056Z,95658.65
2023-01-17T19:10:18.897Z,95649.54
2023-01-17T19:14:06.715Z,95640.67
2023-01-17T19:17:55.994Z,95638.71
2023-01-17T19:21:47.803Z,95632.16
2023-01-17T19:25:36.914Z,95634.16
2023-01-17T19:29:24.975Z,95636.11
2023-01-17T19:33:13.029Z,95633.17
2023-01-17T19:37:00.705Z,95621.10
2023-01-17T19:40:48.891Z,95617.46
2023-01-17T19:44:37.129Z,95605.11
2023-01-17T19:48:25.824Z,95594.67
2023-01-17T19:52:14.118Z,95591.02
2023-01-17T19:56:01.865Z,95574.07
2023-01-17T19:59:50.774Z,95562.60
2023-01-17T20:03:38.604Z,95558.09
2023-01-17T20:07:26.391Z,95560.31
2023-01-17T20:11:15.138Z,95541.33
2023-01-17T20:15:04.150Z,95536.06
2023-01-17T20:18:52.115Z,95526.54
2023-01-17T20:22:39.963Z,95524.41
2023-01-17T20:26:28.377Z,95532.14
2023-01-17T20:30:20.410Z,95540.80
2023-01-17T20:34:12.678Z,95538.77
2023-01-17T20:38:00.547Z,95544.02
2023-01-17T20:41:55.121Z,95539.41
2023-01-17T20:45:43.667Z,95536.45
2023-01-17T20:49:34.904Z,95532.62
2023-01-17T20:53:22.591Z,95529.32
2023-01-17T20:57:11.349Z,95519.63
2023-01-17T21:00:59.468Z,95514.90
2023-01-17T21:04:47.288Z,95502.08
2023-01-17T21:08:35.006Z,95495.91
2023-01-17T21:12:22.862Z,95480.83
2023-01-17T21:16:10.742Z,95479.23
2023-01-17T21:19:58.752Z,95483.71
2023-01-17T21:23:47.134Z,95467.98
2023-01-17T21:27:34.938Z,95475.82
2023-01-17T21:31:22.954Z,95469.66
2023-01-17T21:35:10.763Z,95475.52
2023-01-17T21:38:58.554Z,95475.52
2023-01-17T21:42:46.576Z,95463.79
2023-01-17T21:46:37.344Z,95447.20
2023-01-17T21:50:32.391Z,95457.02
2023-01-17T21:54:21.361Z,95451.91
2023-01-17T21:58:07.674Z,95454.55
2023-01-17T22:01:58.732Z,95450.52
2023-01-17T22:05:46.847Z,95452.48
2023-01-17T22:09:34.589Z,95446.17
2023-01-17T22:13:22.557Z,95447.61
2023-01-17T22:17:10.319Z,95439.33
2023-01-17T22:20:58.103Z,95429.95
2023-01-17T22:24:45.810Z,95426.08
2023-01-17T22:28:33.520Z,95417.16
2023-01-17T22:32:21.387Z,95401.52
2023-01-17T22:36:09.129Z,95390.98
2023-01-17T22:39:56.887Z,95385.53
2023-01-17T22:43:44.646Z,95386.41
2023-01-17T22:47:32.425Z,95376.80
2023-01-17T22:51:20.141Z,95353.75
2023-01-17T22:55:07.940Z,95345.04
2023-01-17T22:58:55.663Z,95334.92
2023-01-17T23:02:43.591Z,95347.91
2023-01-17T23:06:31.380Z,95351.33
2023-01-17T23:10:19.093Z,95356.63
2023-01-17T23:14:06.787Z,95369.20
2023-01-17T23:17:55.736Z,95370.84
2023-01-17T23:21:43.436Z,95372.27
2023-01-17T23:25:31.184Z,95383.89
2023-01-17T23:29:18.923Z,95383.34
2023-01-17T23:33:06.876Z,95391.39
2023-01-17T23:36:54.667Z,95397.45
2023-01-17T23:40:42.433Z,95397.60
2023-01-17T23:44:30.229Z,95401.63
2023-01-17T23:48:17.905Z,95400.61
2023-01-17T23:52:05.618Z,95399.20
2023-01-17T23:55:46.207Z,95405.45
2023-01-17T23:59:33.882Z,95401.51
